Time;durP1;ratioP1;P1;durP2;ratioP2;P2;SDS_P1;SDS_P2;PMS_P1;PMS_P2;Temp;Humidity;BMP_temperature;BMP_pressure;BME280_temperature;BME280_humidity;BME280_pressure;Samples;Min_cycle;Max_cycle;Signal;HPM_P1;HPM_P2
2021/01/20 00:01:59;;;;;;;31.42;15.55;;;-0.10;99.90;;;;;;4962555;28;20447;-85
2021/01/20 00:04:25;;;;;;;33.35;15.57;;;-0.10;99.90;;;;;;4973858;28;20019;-86
2021/01/20 00:06:50;;;;;;;25.38;13.40;;;-0.10;99.90;;;;;;4972018;28;20023;-86
2021/01/20 00:09:17;;;;;;;27.77;14.10;;;-0.10;99.90;;;;;;4972804;28;20362;-89
2021/01/20 00:11:43;;;;;;;30.77;14.15;;;-0.10;99.90;;;;;;4963384;28;20032;-86
2021/01/20 00:14:12;;;;;;;20.80;13.27;;;0.00;99.90;;;;;;4954354;28;20027;-86
2021/01/20 00:16:38;;;;;;;27.55;14.18;;;-0.10;99.90;;;;;;4954192;28;20023;-85
2021/01/20 00:19:04;;;;;;;30.05;14.52;;;-0.10;99.90;;;;;;4969313;28;20050;-86
2021/01/20 00:21:29;;;;;;;26.38;13.18;;;-0.10;99.90;;;;;;4954364;28;20015;-86
2021/01/20 00:23:55;;;;;;;26.73;12.98;;;-0.10;99.90;;;;;;4955529;28;20430;-86
2021/01/20 00:26:21;;;;;;;24.27;13.70;;;-0.10;99.90;;;;;;4954309;28;20027;-84
2021/01/20 00:28:48;;;;;;;26.50;12.70;;;0.00;99.90;;;;;;4954493;28;20023;-85
2021/01/20 00:31:13;;;;;;;25.65;13.55;;;0.00;99.90;;;;;;4952966;28;20457;-85
2021/01/20 00:33:39;;;;;;;20.58;13.43;;;0.00;99.90;;;;;;4955391;28;20059;-85
2021/01/20 00:36:06;;;;;;;27.13;13.75;;;0.00;99.90;;;;;;4954229;28;20042;-84
2021/01/20 00:38:32;;;;;;;23.88;13.02;;;0.00;99.90;;;;;;4954132;28;20086;-86
2021/01/20 00:40:58;;;;;;;24.33;12.77;;;0.00;99.90;;;;;;4954111;28;20031;-85
2021/01/20 00:43:23;;;;;;;24.00;14.07;;;0.00;99.90;;;;;;4954444;28;20035;-85
2021/01/20 00:45:49;;;;;;;22.60;13.38;;;0.00;99.90;;;;;;4954254;28;20539;-84
2021/01/20 00:48:15;;;;;;;24.35;13.55;;;0.00;99.90;;;;;;4953124;28;20031;-85
2021/01/20 00:50:41;;;;;;;28.27;13.98;;;0.00;99.90;;;;;;4956609;28;20023;-85
2021/01/20 00:53:07;;;;;;;28.67;13.77;;;0.00;99.90;;;;;;4958078;28;20063;-84
2021/01/20 00:55:32;;;;;;;22.25;13.05;;;0.00;99.90;;;;;;4957826;28;20035;-85
2021/01/20 00:57:58;;;;;;;27.30;14.15;;;0.00;99.90;;;;;;4957722;28;20110;-85
2021/01/20 01:00:24;;;;;;;29.70;14.18;;;0.00;99.90;;;;;;4957917;28;20122;-85
2021/01/20 01:02:49;;;;;;;27.02;14.23;;;0.00;99.90;;;;;;4978919;28;20038;-85
2021/01/20 01:05:16;;;;;;;28.77;14.55;;;0.00;99.90;;;;;;4976736;28;20047;-85
2021/01/20 01:07:42;;;;;;;24.65;13.35;;;0.00;99.90;;;;;;4976847;28;20059;-85
2021/01/20 01:10:10;;;;;;;35.58;14.80;;;0.00;99.90;;;;;;4976816;28;20109;-85
2021/01/20 01:12:36;;;;;;;24.08;14.02;;;0.00;99.90;;;;;;4976493;28;20062;-87
2021/01/20 01:15:03;;;;;;;28.90;14.07;;;0.00;99.90;;;;;;4976813;28;20053;-86
2021/01/20 01:17:29;;;;;;;28.20;13.70;;;0.00;99.90;;;;;;4976785;28;20037;-85
2021/01/20 01:19:54;;;;;;;29.50;14.65;;;0.00;99.90;;;;;;4975403;28;20488;-86
2021/01/20 01:22:20;;;;;;;27.10;16.10;;;0.00;99.90;;;;;;4976497;28;20033;-84
2021/01/20 01:24:46;;;;;;;30.85;15.80;;;0.10;99.90;;;;;;4976466;28;20019;-84
2021/01/20 01:27:11;;;;;;;27.58;14.30;;;0.10;99.90;;;;;;4976522;28;20027;-84
2021/01/20 01:29:37;;;;;;;28.90;14.15;;;0.00;99.90;;;;;;4976437;28;20472;-84
2021/01/20 01:32:03;;;;;;;30.33;15.32;;;0.00;99.90;;;;;;4976748;28;20039;-84
2021/01/20 01:34:28;;;;;;;30.85;15.93;;;0.00;99.90;;;;;;4957239;28;20032;-84
2021/01/20 01:36:54;;;;;;;26.60;14.70;;;0.00;99.90;;;;;;4955737;28;20033;-85
2021/01/20 01:39:20;;;;;;;29.90;16.00;;;0.00;99.90;;;;;;4955737;28;20038;-86
2021/01/20 01:41:46;;;;;;;31.02;14.75;;;0.10;99.90;;;;;;4956920;28;20429;-85
2021/01/20 01:44:11;;;;;;;34.65;14.98;;;0.10;99.90;;;;;;4971450;28;20385;-89
2021/01/20 01:46:37;;;;;;;30.83;15.13;;;0.00;99.90;;;;;;4971790;28;20038;-86
2021/01/20 01:49:03;;;;;;;27.92;15.32;;;0.10;99.90;;;;;;4956772;28;20035;-86
2021/01/20 01:51:29;;;;;;;26.05;14.10;;;0.10;99.90;;;;;;4956875;28;20023;-87
2021/01/20 01:53:55;;;;;;;27.67;13.90;;;0.10;99.90;;;;;;4956490;28;20027;-87
2021/01/20 01:56:24;;;;;;;29.50;14.50;;;0.10;99.90;;;;;;4956188;28;20466;-87
2021/01/20 01:58:53;;;;;;;31.35;15.10;;;0.10;99.90;;;;;;4956603;28;20426;-87
2021/01/20 02:01:20;;;;;;;21.67;13.82;;;0.10;99.90;;;;;;4964764;28;20019;-85
2021/01/20 02:03:49;;;;;;;23.98;14.50;;;0.10;99.90;;;;;;4974532;28;20053;-86
2021/01/20 02:06:16;;;;;;;24.77;15.57;;;0.10;99.90;;;;;;4975598;28;20031;-85
2021/01/20 02:08:43;;;;;;;24.42;13.57;;;0.10;99.90;;;;;;4975729;28;20031;-86
2021/01/20 02:11:56;;;;;;;24.35;13.15;;;0.10;99.90;;;;;;4987922;28;20503;-85
2021/01/20 02:14:25;;;;;;;29.15;14.90;;;0.10;99.90;;;;;;4953059;29;20059;-86
2021/01/20 02:17:12;;;;;;;22.95;11.98;;;0.10;99.90;;;;;;4956143;29;20159;-86
2021/01/20 02:20:14;;;;;;;26.27;14.88;;;0.10;99.90;;;;;;4954812;29;20050;-87
2021/01/20 02:22:48;;;;;;;25.57;14.27;;;0.10;99.90;;;;;;4970475;28;20381;-88
2021/01/20 02:25:33;;;;;;;29.17;15.35;;;0.10;99.90;;;;;;4955613;28;20027;-88
2021/01/20 02:28:08;;;;;;;23.63;13.50;;;0.10;99.90;;;;;;4955902;28;20023;-86
2021/01/20 02:30:37;;;;;;;25.65;14.27;;;0.10;99.90;;;;;;4955792;28;20054;-87
2021/01/20 02:33:04;;;;;;;29.00;13.57;;;0.10;99.90;;;;;;4955977;28;20046;-88
2021/01/20 02:35:32;;;;;;;25.67;12.65;;;0.10;99.90;;;;;;4955666;28;20031;-87
2021/01/20 02:38:01;;;;;;;29.85;15.10;;;0.10;99.90;;;;;;4954806;28;20105;-87
2021/01/20 02:40:26;;;;;;;26.73;14.48;;;0.10;99.90;;;;;;4955534;28;20381;-88
2021/01/20 02:42:52;;;;;;;23.70;14.15;;;0.10;99.90;;;;;;4955595;28;20028;-87
2021/01/20 02:45:19;;;;;;;24.70;13.55;;;0.10;99.90;;;;;;4955506;28;20030;-85
2021/01/20 02:47:47;;;;;;;30.70;15.93;;;0.10;99.90;;;;;;4954909;28;20061;-86
2021/01/20 02:50:15;;;;;;;29.70;14.45;;;0.10;99.90;;;;;;4954030;28;20035;-85
2021/01/20 02:52:48;;;;;;;28.73;15.23;;;0.10;99.90;;;;;;4955748;28;20027;-85
2021/01/20 02:55:18;;;;;;;30.13;15.80;;;0.10;99.90;;;;;;4955318;28;20473;-87
2021/01/20 02:57:45;;;;;;;29.70;15.70;;;0.10;99.90;;;;;;4955428;28;20031;-86
2021/01/20 03:00:11;;;;;;;26.55;14.38;;;0.10;99.90;;;;;;4954998;28;20035;-87
2021/01/20 03:02:39;;;;;;;31.77;16.65;;;0.20;99.90;;;;;;4956372;28;20122;-86
2021/01/20 03:05:07;;;;;;;33.92;16.90;;;0.20;99.90;;;;;;4955158;28;20028;-85
2021/01/20 03:07:34;;;;;;;32.72;16.70;;;0.10;99.90;;;;;;4955319;28;20019;-85
2021/01/20 03:10:01;;;;;;;29.73;15.27;;;0.20;99.90;;;;;;4955254;28;20121;-84
2021/01/20 03:12:30;;;;;;;30.85;15.25;;;0.20;99.90;;;;;;4954322;28;20026;-86
2021/01/20 03:14:58;;;;;;;32.03;16.65;;;0.20;99.90;;;;;;4955010;28;20031;-86
2021/01/20 03:17:26;;;;;;;29.63;15.32;;;0.20;99.90;;;;;;4953708;28;20511;-86
2021/01/20 03:19:52;;;;;;;29.90;14.50;;;0.20;99.90;;;;;;4953610;29;20089;-86
2021/01/20 03:22:18;;;;;;;29.77;16.45;;;0.20;99.90;;;;;;4959760;28;20031;-87
2021/01/20 03:24:43;;;;;;;32.47;15.52;;;0.20;99.90;;;;;;4974319;28;20031;-88
2021/01/20 03:27:09;;;;;;;29.77;16.83;;;0.30;99.90;;;;;;4974247;28;20033;-86
2021/01/20 03:29:36;;;;;;;29.60;16.85;;;0.30;99.90;;;;;;4988945;28;20433;-86
2021/01/20 03:32:01;;;;;;;30.95;16.60;;;0.20;99.90;;;;;;4989078;28;20022;-85
2021/01/20 03:34:27;;;;;;;32.85;16.88;;;0.20;99.90;;;;;;4974433;28;20114;-85
2021/01/20 03:36:53;;;;;;;32.00;15.15;;;0.20;99.90;;;;;;4974310;28;20035;-84
2021/01/20 03:39:18;;;;;;;38.13;18.40;;;0.20;99.90;;;;;;4972793;28;20270;-84
2021/01/20 03:41:44;;;;;;;36.08;17.48;;;0.30;99.90;;;;;;4974191;28;20543;-84
2021/01/20 03:44:10;;;;;;;33.75;17.75;;;0.30;99.90;;;;;;4972779;28;20027;-84
2021/01/20 03:46:35;;;;;;;31.80;16.85;;;0.30;99.90;;;;;;4972763;28;20073;-84
2021/01/20 03:49:01;;;;;;;31.42;16.02;;;0.30;99.90;;;;;;4974085;28;20365;-84
2021/01/20 03:51:29;;;;;;;36.45;15.10;;;0.30;99.90;;;;;;4973965;28;20031;-83
2021/01/20 03:53:56;;;;;;;30.20;16.55;;;0.30;99.90;;;;;;4974214;28;20162;-84
2021/01/20 03:56:21;;;;;;;34.70;18.02;;;0.30;99.90;;;;;;4973759;28;20023;-84
2021/01/20 03:58:47;;;;;;;34.55;16.45;;;0.30;99.90;;;;;;4972725;28;20034;-85
2021/01/20 04:01:13;;;;;;;30.20;17.48;;;0.30;99.90;;;;;;4973858;28;20453;-85
2021/01/20 04:03:38;;;;;;;31.35;17.08;;;0.30;99.90;;;;;;4988842;28;20037;-85
2021/01/20 04:06:04;;;;;;;32.33;16.63;;;0.30;99.90;;;;;;4972421;28;20381;-86
2021/01/20 04:08:30;;;;;;;32.20;15.80;;;0.40;99.90;;;;;;4973778;28;20027;-86
2021/01/20 04:10:56;;;;;;;27.77;15.27;;;0.30;99.90;;;;;;4973759;28;20461;-85
2021/01/20 04:13:25;;;;;;;30.58;15.38;;;0.40;99.90;;;;;;4973146;28;20046;-85
2021/01/20 04:15:51;;;;;;;30.25;16.80;;;0.40;99.90;;;;;;4972533;28;20027;-86
2021/01/20 04:18:17;;;;;;;31.55;14.48;;;0.40;99.90;;;;;;4972173;28;20054;-86
2021/01/20 04:20:43;;;;;;;31.40;15.52;;;0.40;99.90;;;;;;4970867;28;20027;-85
2021/01/20 04:23:09;;;;;;;31.73;16.13;;;0.40;99.90;;;;;;4973600;28;20051;-86
2021/01/20 04:25:34;;;;;;;33.05;16.02;;;0.30;99.90;;;;;;4992316;28;20543;-87
2021/01/20 04:28:00;;;;;;;33.63;15.95;;;0.40;99.90;;;;;;4994072;28;20495;-87
2021/01/20 04:30:26;;;;;;;27.50;15.02;;;0.40;99.90;;;;;;5012022;28;20027;-88
2021/01/20 04:32:52;;;;;;;27.95;15.07;;;0.40;99.90;;;;;;4995498;28;20514;-86
2021/01/20 04:35:18;;;;;;;34.60;16.83;;;0.40;99.90;;;;;;4981183;28;20055;-86
2021/01/20 04:37:44;;;;;;;34.15;16.48;;;0.40;99.90;;;;;;4970282;28;20396;-86
2021/01/20 04:40:10;;;;;;;26.25;15.38;;;0.50;99.90;;;;;;4971101;28;20047;-86
2021/01/20 04:42:36;;;;;;;32.83;16.88;;;0.40;99.90;;;;;;4960969;28;20489;-86
2021/01/20 04:45:02;;;;;;;34.60;15.55;;;0.50;99.90;;;;;;4972729;28;20054;-87
2021/01/20 04:47:29;;;;;;;32.45;16.50;;;0.50;99.90;;;;;;4958042;28;20015;-87
2021/01/20 04:49:57;;;;;;;32.47;17.17;;;0.50;99.90;;;;;;4959493;28;20027;-86
2021/01/20 04:52:26;;;;;;;34.55;16.30;;;0.50;99.90;;;;;;4957936;28;20023;-86
2021/01/20 04:54:53;;;;;;;30.27;16.20;;;0.50;99.90;;;;;;4972267;28;20102;-85
2021/01/20 04:57:19;;;;;;;28.85;14.70;;;0.50;99.90;;;;;;4976869;28;20472;-86
2021/01/20 04:59:44;;;;;;;27.80;14.60;;;0.50;99.90;;;;;;4977037;28;20038;-86
2021/01/20 05:02:11;;;;;;;27.48;14.73;;;0.60;99.90;;;;;;4976831;28;20027;-86
2021/01/20 05:04:40;;;;;;;33.17;15.52;;;0.50;99.90;;;;;;4976837;28;20018;-85
2021/01/20 05:07:07;;;;;;;27.45;15.02;;;0.50;99.90;;;;;;4975794;28;20023;-85
2021/01/20 05:09:33;;;;;;;33.22;16.38;;;0.50;99.90;;;;;;4993196;28;20116;-85
2021/01/20 05:11:59;;;;;;;31.30;15.45;;;0.50;99.90;;;;;;4996060;28;20026;-85
2021/01/20 05:14:25;;;;;;;31.77;15.15;;;0.50;99.90;;;;;;4996004;28;20084;-86
2021/01/20 05:16:53;;;;;;;35.00;16.05;;;0.60;99.90;;;;;;4995997;28;20488;-85
2021/01/20 05:19:39;;;;;;;30.88;15.43;;;0.60;99.90;;;;;;4995730;28;20116;-86
2021/01/20 05:22:07;;;;;;;35.25;15.80;;;0.60;99.90;;;;;;4995728;28;20018;-86
2021/01/20 05:24:35;;;;;;;36.25;15.93;;;0.60;99.90;;;;;;4988341;28;20058;-85
2021/01/20 05:27:00;;;;;;;38.38;17.05;;;0.60;99.90;;;;;;4971731;28;20023;-85
2021/01/20 05:29:26;;;;;;;40.35;18.25;;;0.60;99.90;;;;;;4962801;28;20105;-86
2021/01/20 05:31:52;;;;;;;38.80;18.88;;;0.60;99.90;;;;;;4994826;28;20022;-86
2021/01/20 05:34:25;;;;;;;40.53;18.98;;;0.60;99.90;;;;;;4996027;28;20026;-87
2021/01/20 05:37:02;;;;;;;43.65;20.65;;;0.60;99.90;;;;;;4994944;28;20025;-85
2021/01/20 05:39:28;;;;;;;42.08;19.88;;;0.60;99.90;;;;;;4993881;28;20042;-85
2021/01/20 05:42:05;;;;;;;49.13;21.77;;;0.60;99.90;;;;;;4995596;28;20033;-85
2021/01/20 05:44:31;;;;;;;47.67;22.15;;;0.60;99.90;;;;;;4994401;28;20072;-85
2021/01/20 05:46:57;;;;;;;41.17;19.98;;;0.60;99.90;;;;;;5009059;28;20480;-85
2021/01/20 05:49:27;;;;;;;42.28;20.65;;;0.60;99.90;;;;;;4993431;28;20027;-86
2021/01/20 05:51:53;;;;;;;64.57;28.77;;;0.60;99.90;;;;;;4995077;28;20018;-85
2021/01/20 05:54:38;;;;;;;57.67;25.30;;;0.60;99.90;;;;;;4960774;28;20027;-86
2021/01/20 05:57:18;;;;;;;51.90;24.05;;;0.60;99.90;;;;;;4956496;28;20039;-86
2021/01/20 05:59:46;;;;;;;52.08;21.80;;;0.70;99.90;;;;;;4956162;28;20046;-86
2021/01/20 06:02:13;;;;;;;45.90;21.55;;;0.70;99.90;;;;;;4955697;28;20465;-85
2021/01/20 06:04:39;;;;;;;43.35;20.70;;;0.70;99.90;;;;;;4972056;28;20039;-89
2021/01/20 06:07:08;;;;;;;44.22;21.67;;;0.70;99.90;;;;;;4975344;28;20022;-87
2021/01/20 06:09:35;;;;;;;48.13;20.27;;;0.70;99.90;;;;;;4975472;28;20022;-85
2021/01/20 06:12:06;;;;;;;40.08;19.63;;;0.70;99.90;;;;;;4976085;28;20061;-85
2021/01/20 06:14:32;;;;;;;44.55;20.92;;;0.70;99.90;;;;;;4985976;28;20028;-84
2021/01/20 06:17:14;;;;;;;45.70;21.50;;;0.70;99.90;;;;;;4957431;28;20039;-84
2021/01/20 06:19:46;;;;;;;41.70;20.02;;;0.70;99.90;;;;;;4955823;28;20039;-88
2021/01/20 06:22:17;;;;;;;47.42;20.67;;;0.70;99.90;;;;;;4958552;28;20366;-85
2021/01/20 06:24:48;;;;;;;43.40;20.85;;;0.80;99.90;;;;;;4958414;28;20035;-85
2021/01/20 06:27:33;;;;;;;35.58;19.27;;;0.80;99.90;;;;;;4955715;28;20023;-86
2021/01/20 06:30:19;;;;;;;42.72;18.45;;;0.80;99.90;;;;;;4973526;28;20034;-86
2021/01/20 06:32:47;;;;;;;40.60;19.02;;;0.80;99.90;;;;;;4972686;28;20042;-89
2021/01/20 06:35:15;;;;;;;44.60;19.38;;;0.80;99.90;;;;;;4974130;28;20037;-94
2021/01/20 06:37:46;;;;;;;42.70;20.95;;;0.80;99.90;;;;;;4972018;28;20489;-87
2021/01/20 06:40:20;;;;;;;40.15;19.52;;;0.80;99.90;;;;;;4983193;28;20126;-90
2021/01/20 06:42:48;;;;;;;37.50;19.23;;;0.80;99.90;;;;;;4985204;28;20022;-86
2021/01/20 06:45:25;;;;;;;39.00;17.30;;;0.80;99.90;;;;;;4981535;28;20511;-86
2021/01/20 06:48:00;;;;;;;36.05;15.57;;;0.80;99.90;;;;;;4968484;28;20437;-83
2021/01/20 06:50:27;;;;;;;39.38;18.63;;;0.90;99.90;;;;;;4986926;28;20025;-86
2021/01/20 06:53:02;;;;;;;37.70;17.50;;;0.90;99.90;;;;;;4992172;28;20022;-84
2021/01/20 06:55:33;;;;;;;38.38;18.30;;;0.90;99.90;;;;;;4992649;28;20023;-78
2021/01/20 06:58:24;;;;;;;33.58;16.92;;;0.90;99.90;;;;;;4990849;28;20077;-86
2021/01/20 07:01:13;;;;;;;31.67;17.25;;;0.90;99.90;;;;;;4990521;28;20476;-85
2021/01/20 07:03:43;;;;;;;41.67;18.55;;;0.90;99.90;;;;;;4986290;28;20030;-86
2021/01/20 07:06:34;;;;;;;39.00;19.90;;;1.00;99.90;;;;;;4993232;28;20022;-86
2021/01/20 07:09:04;;;;;;;40.78;19.38;;;1.00;99.90;;;;;;4993695;28;20022;-86
2021/01/20 07:11:30;;;;;;;41.05;20.15;;;1.00;99.90;;;;;;4993700;28;20023;-85
2021/01/20 07:13:56;;;;;;;40.55;19.55;;;1.00;99.90;;;;;;4977212;28;20035;-84
2021/01/20 07:16:25;;;;;;;40.17;20.05;;;1.00;99.90;;;;;;4952998;28;20035;-85
2021/01/20 07:18:52;;;;;;;49.72;21.77;;;1.00;99.90;;;;;;4969936;28;20043;-84
2021/01/20 07:21:18;;;;;;;45.95;19.85;;;1.10;99.90;;;;;;4970020;28;20110;-85
2021/01/20 07:23:44;;;;;;;51.65;21.08;;;1.10;99.90;;;;;;4954231;28;20060;-85
2021/01/20 07:26:11;;;;;;;42.05;19.67;;;1.10;99.90;;;;;;4954933;28;20023;-86
2021/01/20 07:28:38;;;;;;;41.97;20.00;;;1.20;99.90;;;;;;4977092;28;20417;-85
2021/01/20 07:31:14;;;;;;;37.80;19.63;;;1.20;99.90;;;;;;4973946;28;20030;-85
2021/01/20 07:33:51;;;;;;;40.42;21.50;;;1.20;99.90;;;;;;4974181;28;20029;-85
2021/01/20 07:36:18;;;;;;;41.90;19.30;;;1.30;99.90;;;;;;4973699;28;20037;-85
2021/01/20 07:38:45;;;;;;;43.17;21.10;;;1.20;99.90;;;;;;4956100;28;20133;-85
2021/01/20 07:41:16;;;;;;;40.65;19.35;;;1.30;99.90;;;;;;4969391;28;20025;-85
2021/01/20 07:43:42;;;;;;;44.45;21.55;;;1.30;99.90;;;;;;4954659;28;20019;-85
2021/01/20 07:46:19;;;;;;;53.85;26.50;;;1.30;99.90;;;;;;4954759;29;20023;-85
2021/01/20 07:48:45;;;;;;;132.15;67.50;;;1.30;99.90;;;;;;4954793;28;20038;-86
2021/01/20 07:51:19;;;;;;;183.05;83.65;;;1.40;99.90;;;;;;4954829;28;20030;-86
2021/01/20 07:54:01;;;;;;;392.80;208.40;;;1.40;99.90;;;;;;4954348;28;20072;-86
2021/01/20 07:56:28;;;;;;;171.60;99.45;;;1.40;99.90;;;;;;4953027;29;20046;-86
2021/01/20 07:58:54;;;;;;;247.63;134.32;;;1.40;99.90;;;;;;4960793;28;20043;-85
2021/01/20 08:01:25;;;;;;;137.32;78.75;;;1.50;99.90;;;;;;4988661;28;20468;-85
2021/01/20 08:03:50;;;;;;;133.70;82.80;;;1.50;99.90;;;;;;4973897;28;20027;-85
2021/01/20 08:06:16;;;;;;;87.53;52.42;;;1.50;99.90;;;;;;4973669;28;20409;-85
2021/01/20 08:08:57;;;;;;;73.20;42.53;;;1.60;99.90;;;;;;4973438;28;20472;-87
2021/01/20 08:11:28;;;;;;;76.80;48.75;;;1.60;99.90;;;;;;4972308;28;20031;-84
2021/01/20 08:13:54;;;;;;;65.85;37.85;;;1.60;99.90;;;;;;4972518;28;20109;-83
2021/01/20 08:16:20;;;;;;;63.35;38.53;;;1.70;99.90;;;;;;4973737;28;20031;-82
2021/01/20 08:18:46;;;;;;;71.10;40.58;;;1.80;99.90;;;;;;4973686;28;20042;-82
2021/01/20 08:21:12;;;;;;;71.03;33.90;;;1.80;99.90;;;;;;4972276;28;20437;-83
2021/01/20 08:23:53;;;;;;;57.65;29.98;;;1.80;99.90;;;;;;4973612;28;20529;-82
2021/01/20 08:26:26;;;;;;;70.68;39.47;;;1.90;99.90;;;;;;4973652;28;20082;-82
2021/01/20 08:29:11;;;;;;;66.20;31.75;;;1.90;99.90;;;;;;4961492;28;20098;-82
2021/01/20 08:31:39;;;;;;;67.53;31.30;;;2.00;99.90;;;;;;4954589;28;20023;-82
2021/01/20 08:34:18;;;;;;;60.45;35.53;;;2.00;99.90;;;;;;4954150;28;20026;-82
2021/01/20 08:37:01;;;;;;;49.03;23.65;;;2.10;99.90;;;;;;4954606;28;20053;-82
2021/01/20 08:39:28;;;;;;;48.47;24.95;;;2.10;99.90;;;;;;4955375;28;20047;-82
2021/01/20 08:42:25;;;;;;;50.65;28.15;;;2.10;99.90;;;;;;4954242;28;20054;-83
2021/01/20 08:45:14;;;;;;;43.38;23.02;;;2.10;99.90;;;;;;4955394;28;20047;-83
2021/01/20 08:47:56;;;;;;;51.17;23.80;;;2.20;99.90;;;;;;4956170;28;20023;-82
2021/01/20 08:50:35;;;;;;;48.90;26.98;;;2.30;99.90;;;;;;4953766;29;20024;-83
2021/01/20 08:53:25;;;;;;;78.05;33.95;;;2.30;99.90;;;;;;4954115;28;20098;-84
2021/01/20 08:55:52;;;;;;;66.13;28.38;;;2.40;99.90;;;;;;4952732;29;20081;-85
2021/01/20 08:58:25;;;;;;;66.10;33.95;;;2.40;99.90;;;;;;4953959;28;20504;-85
2021/01/20 09:01:09;;;;;;;73.03;35.83;;;2.50;99.90;;;;;;4953943;28;20028;-85
2021/01/20 09:03:38;;;;;;;58.35;28.15;;;2.60;99.90;;;;;;4953365;28;20027;-86
2021/01/20 09:06:12;;;;;;;60.55;31.13;;;2.70;99.90;;;;;;4977029;28;20022;-86
2021/01/20 09:08:38;;;;;;;65.43;32.72;;;2.70;99.90;;;;;;4989778;28;20109;-88
2021/01/20 09:11:04;;;;;;;42.58;22.33;;;2.70;99.90;;;;;;4990705;28;20382;-84
2021/01/20 09:13:31;;;;;;;46.95;23.35;;;2.80;99.90;;;;;;4994115;28;20030;-88
2021/01/20 09:15:57;;;;;;;55.08;27.65;;;2.80;99.90;;;;;;4995723;28;20023;-85
2021/01/20 09:18:24;;;;;;;44.42;20.77;;;2.90;99.90;;;;;;4983122;28;20393;-88
2021/01/20 09:20:51;;;;;;;41.78;18.60;;;3.00;99.90;;;;;;4975466;28;20106;-89
2021/01/20 09:23:18;;;;;;;55.75;29.42;;;3.10;99.90;;;;;;4974730;28;20113;-87
2021/01/20 09:25:44;;;;;;;63.78;30.27;;;3.10;99.90;;;;;;4976525;28;20435;-86
2021/01/20 09:28:09;;;;;;;43.83;18.73;;;3.20;99.90;;;;;;4976335;28;20034;-86
2021/01/20 09:30:35;;;;;;;36.90;18.92;;;3.30;99.90;;;;;;4975498;28;20078;-83
2021/01/20 09:33:02;;;;;;;55.13;29.45;;;3.30;99.90;;;;;;4975516;28;20030;-84
2021/01/20 09:35:28;;;;;;;31.35;17.60;;;3.30;99.90;;;;;;4976206;28;20081;-81
2021/01/20 09:37:54;;;;;;;31.40;17.08;;;3.40;99.90;;;;;;4975122;28;20547;-85
2021/01/20 09:40:22;;;;;;;40.85;19.58;;;3.60;99.90;;;;;;4973440;28;20527;-84
2021/01/20 09:42:49;;;;;;;39.88;22.65;;;3.80;99.90;;;;;;4975954;28;20109;-86
2021/01/20 09:45:18;;;;;;;28.50;14.63;;;4.00;99.90;;;;;;4975704;28;20026;-88
2021/01/20 09:47:45;;;;;;;31.17;16.00;;;4.00;99.90;;;;;;4976020;28;20027;-88
2021/01/20 09:50:14;;;;;;;39.58;20.35;;;4.10;99.90;;;;;;4972677;28;20029;-88
2021/01/20 09:52:40;;;;;;;27.27;15.55;;;4.10;99.90;;;;;;4981702;28;20050;-87
2021/01/20 09:55:06;;;;;;;27.13;14.48;;;4.20;99.90;;;;;;4973255;28;20034;-87
2021/01/20 09:57:33;;;;;;;24.52;13.30;;;4.10;99.90;;;;;;4975882;28;20122;-85
2021/01/20 09:59:59;;;;;;;47.25;25.75;;;4.10;99.90;;;;;;4975246;28;20142;-84
2021/01/20 10:02:25;;;;;;;51.95;23.67;;;4.20;99.90;;;;;;4974669;28;20388;-83
2021/01/20 10:04:51;;;;;;;31.50;14.43;;;4.20;99.90;;;;;;4976002;28;20034;-86
2021/01/20 10:07:17;;;;;;;33.42;16.17;;;4.20;99.90;;;;;;4975612;28;20022;-88
2021/01/20 10:09:43;;;;;;;53.67;27.55;;;4.30;99.90;;;;;;4970092;28;20019;-89
2021/01/20 10:12:11;;;;;;;42.55;17.15;;;4.30;99.90;;;;;;4955340;28;20031;-87
2021/01/20 10:14:37;;;;;;;18.90;10.30;;;4.50;99.90;;;;;;4955229;28;20050;-88
2021/01/20 10:17:04;;;;;;;36.92;14.60;;;4.40;99.90;;;;;;4954885;28;20023;-87
2021/01/20 10:19:30;;;;;;;25.20;12.88;;;4.30;99.90;;;;;;4955879;28;20095;-88
2021/01/20 10:21:56;;;;;;;24.30;12.45;;;4.30;99.90;;;;;;4954996;28;20020;-83
2021/01/20 10:24:22;;;;;;;26.92;14.98;;;4.20;99.90;;;;;;4965103;28;20056;-88
2021/01/20 10:26:47;;;;;;;29.00;14.20;;;4.20;99.90;;;;;;4974154;28;20467;-82
2021/01/20 10:29:13;;;;;;;25.25;13.00;;;4.10;99.90;;;;;;4974023;28;20109;-88
2021/01/20 10:31:40;;;;;;;24.35;12.27;;;4.10;99.90;;;;;;4975162;28;20035;-86
2021/01/20 10:34:10;;;;;;;27.95;12.38;;;4.30;99.90;;;;;;4974225;28;20027;-88
2021/01/20 10:36:37;;;;;;;21.92;11.38;;;4.50;99.90;;;;;;4973881;28;20018;-89
2021/01/20 10:39:04;;;;;;;22.83;11.25;;;4.60;99.90;;;;;;4973809;28;20073;-88
2021/01/20 10:41:29;;;;;;;22.33;11.75;;;4.60;99.90;;;;;;4956742;28;20054;-87
2021/01/20 10:43:55;;;;;;;31.55;14.57;;;4.50;99.90;;;;;;4954370;28;20568;-90
2021/01/20 10:46:25;;;;;;;27.00;12.88;;;4.50;99.90;;;;;;4955635;28;20034;-89
2021/01/20 10:48:52;;;;;;;33.85;14.35;;;4.50;99.90;;;;;;4955705;28;20024;-88
2021/01/20 10:51:19;;;;;;;22.13;11.63;;;4.50;99.90;;;;;;4956134;28;20047;-88
2021/01/20 10:53:45;;;;;;;22.10;11.65;;;4.50;99.90;;;;;;4954871;28;20495;-89
2021/01/20 10:56:10;;;;;;;21.90;10.32;;;4.50;99.90;;;;;;4955486;28;20038;-89
2021/01/20 10:58:36;;;;;;;16.80;8.50;;;4.50;99.90;;;;;;4954284;28;20035;-87
2021/01/20 11:01:03;;;;;;;18.70;9.77;;;4.60;99.90;;;;;;4955245;28;20027;-84
2021/01/20 11:03:29;;;;;;;18.33;9.75;;;4.50;99.90;;;;;;4955337;28;20050;-85
2021/01/20 11:05:55;;;;;;;17.58;9.75;;;4.50;99.90;;;;;;4954063;29;20038;-86
2021/01/20 11:08:21;;;;;;;21.55;11.57;;;4.50;99.90;;;;;;4954168;29;20028;-89
2021/01/20 11:10:47;;;;;;;26.40;12.73;;;4.40;99.90;;;;;;4963278;28;20037;-88
2021/01/20 11:13:13;;;;;;;18.10;8.85;;;4.50;99.90;;;;;;4953921;29;20081;-89
2021/01/20 11:15:45;;;;;;;20.42;9.25;;;4.30;99.90;;;;;;4955269;28;20125;-88
2021/01/20 11:18:14;;;;;;;19.80;9.52;;;4.30;99.90;;;;;;4953846;29;20020;-90
2021/01/20 11:20:42;;;;;;;17.17;8.95;;;4.30;99.90;;;;;;4953928;29;20042;-90
2021/01/20 11:23:10;;;;;;;18.42;9.60;;;4.30;99.90;;;;;;4969565;28;20027;-85
2021/01/20 11:25:43;;;;;;;16.80;9.52;;;4.30;99.90;;;;;;4977755;28;20054;-90
2021/01/20 11:28:09;;;;;;;;;;;4.40;99.90;;;;;;4988681;28;20034;-90
2021/01/20 11:30:35;;;;;;;25.33;9.80;;;4.50;99.90;;;;;;4976649;28;19922;-90
2021/01/20 11:33:00;;;;;;;18.65;9.40;;;4.50;99.90;;;;;;4972118;28;20145;-89
2021/01/20 11:35:26;;;;;;;19.52;8.65;;;4.60;99.90;;;;;;4976146;28;20034;-84
2021/01/20 11:37:58;;;;;;;14.57;8.40;;;4.60;99.90;;;;;;4973342;28;20437;-89
2021/01/20 11:40:29;;;;;;;20.30;9.70;;;4.60;99.90;;;;;;4969001;28;20057;-90
2021/01/20 11:42:58;;;;;;;14.40;7.53;;;4.70;99.90;;;;;;4973417;28;20034;-90
2021/01/20 11:45:29;;;;;;;14.77;8.80;;;4.70;99.90;;;;;;4979762;28;20030;-91
2021/01/20 11:47:55;;;;;;;15.25;8.75;;;4.80;99.90;;;;;;4973114;28;20401;-89
2021/01/20 11:50:21;;;;;;;16.48;8.43;;;4.80;99.90;;;;;;4981737;28;20023;-90
2021/01/20 11:52:48;;;;;;;15.45;7.07;;;4.90;99.90;;;;;;4988838;28;20022;-89
2021/01/20 11:55:14;;;;;;;14.90;7.53;;;4.90;99.90;;;;;;4978495;28;20031;-88
2021/01/20 11:57:40;;;;;;;12.63;7.80;;;4.90;99.90;;;;;;4977678;28;20026;-89
2021/01/20 12:00:10;;;;;;;16.02;7.22;;;4.90;99.90;;;;;;4973279;28;20070;-90
2021/01/20 12:02:40;;;;;;;9.85;6.75;;;5.00;99.90;;;;;;4971065;28;20412;-88
2021/01/20 12:05:08;;;;;;;15.55;7.80;;;5.00;99.90;;;;;;4988476;28;20054;-90
2021/01/20 12:07:43;;;;;;;12.40;6.68;;;5.00;99.90;;;;;;4981224;28;20098;-90
2021/01/20 12:10:09;;;;;;;13.50;7.00;;;5.10;99.90;;;;;;4966544;28;20035;-89
2021/01/20 12:12:35;;;;;;;12.60;7.22;;;5.10;99.90;;;;;;4951949;29;20027;-88
2021/01/20 12:15:01;;;;;;;13.07;6.75;;;5.10;99.90;;;;;;4954134;28;20542;-90
2021/01/20 12:17:27;;;;;;;11.90;6.50;;;5.20;99.90;;;;;;4954431;28;20023;-88
2021/01/20 12:19:52;;;;;;;11.10;6.38;;;5.20;99.90;;;;;;4952659;29;20038;-88
2021/01/20 12:22:18;;;;;;;11.18;5.95;;;5.10;99.80;;;;;;4954107;29;20027;-85
2021/01/20 12:24:44;;;;;;;12.35;6.35;;;5.10;99.20;;;;;;4954147;28;20393;-88
2021/01/20 12:27:10;;;;;;;10.40;5.65;;;5.00;99.10;;;;;;4952966;29;20489;-89
2021/01/20 12:29:36;;;;;;;11.15;6.32;;;5.00;99.00;;;;;;4953889;28;20027;-89
2021/01/20 12:32:02;;;;;;;10.30;5.97;;;5.00;98.50;;;;;;4953329;28;20122;-88
2021/01/20 12:34:28;;;;;;;10.02;5.43;;;5.00;98.90;;;;;;4952989;29;20020;-88
2021/01/20 12:36:54;;;;;;;10.50;5.70;;;5.10;98.80;;;;;;4969164;28;20047;-89
2021/01/20 12:39:20;;;;;;;12.50;6.50;;;5.10;97.70;;;;;;4957004;28;20042;-88
2021/01/20 12:41:45;;;;;;;15.18;6.40;;;5.10;96.40;;;;;;4973430;28;20031;-87
2021/01/20 12:44:11;;;;;;;12.10;6.28;;;5.20;95.90;;;;;;4973340;28;20106;-88
2021/01/20 12:46:40;;;;;;;9.85;5.78;;;5.20;95.80;;;;;;4976941;28;20146;-88